createdAt,value
2023-08-07T00:01:18.206Z,14.31
2023-08-07T00:03:49.822Z,14.31
2023-08-07T00:06:21.480Z,14.32
2023-08-07T00:08:53.040Z,14.30
2023-08-07T00:11:24.669Z,14.30
2023-08-07T00:13:56.270Z,14.29
2023-08-07T00:16:27.960Z,14.28
2023-08-07T00:18:59.542Z,14.28
2023-08-07T00:21:31.349Z,14.28
2023-08-07T00:24:02.959Z,14.28
2023-08-07T00:26:34.670Z,14.30
2023-08-07T00:29:06.684Z,14.30
2023-08-07T00:31:38.358Z,14.30
2023-08-07T00:34:10.848Z,14.31
2023-08-07T00:36:42.394Z,14.31
2023-08-07T00:39:12.529Z,14.32
2023-08-07T00:41:45.417Z,14.31
2023-08-07T00:44:17.250Z,14.32
2023-08-07T00:46:49.175Z,14.30
2023-08-07T00:49:22.355Z,14.30
2023-08-07T00:51:54.366Z,14.29
2023-08-07T00:54:27.392Z,14.29
2023-08-07T00:57:04.556Z,14.29
2023-08-07T00:59:36.377Z,14.29
2023-08-07T01:02:09.219Z,14.29
2023-08-07T01:04:41.639Z,14.27
2023-08-07T01:07:13.312Z,14.25
2023-08-07T01:09:44.946Z,14.23
2023-08-07T01:12:21.620Z,14.22
2023-08-07T01:15:00.586Z,14.20
2023-08-07T01:17:34.839Z,14.20
2023-08-07T01:20:08.578Z,14.19
2023-08-07T01:22:40.222Z,14.18
2023-08-07T01:25:11.872Z,14.18
2023-08-07T01:27:52.455Z,14.17
2023-08-07T01:30:32.287Z,14.16
2023-08-07T01:33:12.266Z,14.14
2023-08-07T01:35:45.855Z,14.13
2023-08-07T01:38:18.437Z,14.12
2023-08-07T01:40:50.984Z,14.09
2023-08-07T01:43:24.914Z,14.08
2023-08-07T01:45:56.514Z,14.06
2023-08-07T01:48:28.222Z,14.05
2023-08-07T01:50:59.838Z,14.04
2023-08-07T01:53:31.424Z,14.04
2023-08-07T01:56:04.012Z,14.05
2023-08-07T01:58:35.634Z,14.05
2023-08-07T02:01:07.482Z,14.05
2023-08-07T02:03:39.117Z,14.05
2023-08-07T02:06:10.833Z,14.05
2023-08-07T02:08:40.910Z,14.05
2023-08-07T02:11:12.394Z,14.04
2023-08-07T02:13:42.543Z,14.03
2023-08-07T02:16:14.370Z,14.03
2023-08-07T02:18:46.104Z,14.02
2023-08-07T02:21:18.133Z,14.02
2023-08-07T02:23:49.722Z,14.02
2023-08-07T02:26:21.399Z,14.02
2023-08-07T02:28:53.117Z,14.01
2023-08-07T02:31:24.935Z,14.00
2023-08-07T02:33:56.502Z,14.00
2023-08-07T02:36:26.591Z,14.01
2023-08-07T02:38:58.246Z,14.02
2023-08-07T02:41:29.810Z,14.03
2023-08-07T02:44:01.581Z,14.04
2023-08-07T02:46:33.340Z,14.04
2023-08-07T02:49:05.859Z,14.03
2023-08-07T02:51:37.460Z,14.02
2023-08-07T02:54:09.203Z,14.01
2023-08-07T02:56:40.869Z,14.00
2023-08-07T02:59:12.429Z,13.99
2023-08-07T03:01:44.510Z,13.96
2023-08-07T03:04:16.073Z,13.94
2023-08-07T03:06:48.026Z,13.93
2023-08-07T03:09:19.617Z,13.91
2023-08-07T03:11:51.188Z,13.90
2023-08-07T03:14:22.685Z,13.88
2023-08-07T03:16:52.879Z,13.87
2023-08-07T03:19:24.665Z,13.86
2023-08-07T03:21:56.217Z,13.85
2023-08-07T03:24:28.088Z,13.86
2023-08-07T03:26:59.904Z,13.86
2023-08-07T03:29:32.149Z,13.88
2023-08-07T03:32:03.844Z,13.89
2023-08-07T03:34:36.135Z,13.90
2023-08-07T03:37:08.731Z,13.91
2023-08-07T03:39:40.455Z,13.92
2023-08-07T03:42:11.919Z,13.93
2023-08-07T03:44:43.987Z,13.95
2023-08-07T03:47:17.245Z,13.96
2023-08-07T03:49:49.076Z,13.99
2023-08-07T03:52:20.651Z,14.01
2023-08-07T03:54:52.289Z,14.03
2023-08-07T03:57:23.830Z,14.05
2023-08-07T03:59:56.305Z,14.07
2023-08-07T04:02:28.953Z,14.09
2023-08-07T04:05:00.965Z,14.11
2023-08-07T04:07:32.491Z,14.12
2023-08-07T04:10:04.261Z,14.14
2023-08-07T04:12:36.255Z,14.15
2023-08-07T04:15:10.127Z,14.15
2023-08-07T04:17:42.498Z,14.18
2023-08-07T04:20:14.535Z,14.20
2023-08-07T04:22:46.405Z,14.21
2023-08-07T04:25:18.293Z,14.22
2023-08-07T04:27:49.863Z,14.26
2023-08-07T04:30:21.431Z,14.28
2023-08-07T04:32:53.093Z,14.30
2023-08-07T04:35:25.029Z,14.32
2023-08-07T04:37:56.734Z,14.35
2023-08-07T04:40:28.380Z,14.37
2023-08-07T04:43:00.043Z,14.39
2023-08-07T04:45:31.613Z,14.44
2023-08-07T04:48:01.669Z,14.50
2023-08-07T04:50:34.079Z,14.57
2023-08-07T04:53:06.110Z,14.64
2023-08-07T04:55:37.658Z,14.69
2023-08-07T04:58:07.762Z,14.74
2023-08-07T05:00:39.392Z,14.78
2023-08-07T05:03:11.158Z,14.82
2023-08-07T05:05:43.078Z,14.84
2023-08-07T05:08:14.651Z,14.86
2023-08-07T05:10:46.157Z,14.88
2023-08-07T05:13:16.299Z,14.92
2023-08-07T05:15:50.696Z,14.95
2023-08-07T05:18:22.264Z,14.99
2023-08-07T05:20:53.994Z,15.01
2023-08-07T05:23:25.712Z,15.02
2023-08-07T05:25:57.312Z,15.02
2023-08-07T05:28:29.695Z,15.04
2023-08-07T05:31:01.219Z,15.06
2023-08-07T05:33:32.874Z,15.09
2023-08-07T05:36:06.584Z,15.12
2023-08-07T05:38:38.552Z,15.15
2023-08-07T05:41:10.711Z,15.18
2023-08-07T05:43:42.181Z,15.20
2023-08-07T05:46:13.708Z,15.22
2023-08-07T05:48:45.316Z,15.24
2023-08-07T05:51:16.861Z,15.26
2023-08-07T05:53:48.411Z,15.27
2023-08-07T05:56:20.180Z,15.30
2023-08-07T05:58:51.823Z,15.31
2023-08-07T06:01:24.416Z,15.33
2023-08-07T06:03:56.094Z,15.36
2023-08-07T06:06:29.163Z,15.37
2023-08-07T06:09:01.241Z,15.39
2023-08-07T06:11:33.169Z,15.40
2023-08-07T06:14:04.976Z,15.42
2023-08-07T06:16:36.800Z,15.45
2023-08-07T06:19:20.916Z,15.48
2023-08-07T06:21:57.579Z,15.52
2023-08-07T06:24:29.703Z,15.56
2023-08-07T06:27:01.360Z,15.60
2023-08-07T06:29:32.909Z,15.60
2023-08-07T06:32:05.318Z,15.60
2023-08-07T06:34:39.681Z,15.58
2023-08-07T06:37:11.337Z,15.58
2023-08-07T06:39:43.002Z,15.60
2023-08-07T06:42:14.517Z,15.62
2023-08-07T06:44:47.874Z,15.60
2023-08-07T06:47:19.550Z,15.57
2023-08-07T06:49:51.257Z,15.54
2023-08-07T06:52:22.891Z,15.50
2023-08-07T06:54:54.633Z,15.45
2023-08-07T06:57:26.191Z,15.42
2023-08-07T06:59:57.774Z,15.39
2023-08-07T07:02:29.379Z,15.37
2023-08-07T07:05:01.315Z,15.35
2023-08-07T07:07:33.017Z,15.31
2023-08-07T07:10:04.922Z,15.28
2023-08-07T07:12:36.677Z,15.25
2023-08-07T07:15:10.167Z,15.21
2023-08-07T07:17:41.790Z,15.19
2023-08-07T07:20:14.857Z,15.19
2023-08-07T07:22:46.391Z,15.20
2023-08-07T07:25:16.609Z,15.20
2023-08-07T07:27:48.236Z,15.21
2023-08-07T07:30:19.848Z,15.21
2023-08-07T07:32:52.216Z,15.20
2023-08-07T07:35:23.829Z,15.19
2023-08-07T07:37:55.392Z,15.17
2023-08-07T07:40:25.509Z,15.16
2023-08-07T07:42:57.106Z,15.15
2023-08-07T07:45:28.750Z,15.16
2023-08-07T07:48:00.375Z,15.18
2023-08-07T07:50:32.017Z,15.20
2023-08-07T07:53:03.654Z,15.22
2023-08-07T07:55:35.452Z,15.25
2023-08-07T07:58:07.367Z,15.29
2023-08-07T08:00:38.976Z,15.33
2023-08-07T08:03:11.386Z,15.36
2023-08-07T08:05:43.224Z,15.39
2023-08-07T08:08:14.825Z,15.43
2023-08-07T08:10:48.330Z,15.46
2023-08-07T08:13:20.140Z,15.49
2023-08-07T08:15:51.770Z,15.51
2023-08-07T08:18:23.535Z,15.52
2023-08-07T08:20:56.175Z,15.51
2023-08-07T08:23:27.723Z,15.51
2023-08-07T08:25:59.383Z,15.52
2023-08-07T08:28:31.187Z,15.51
2023-08-07T08:31:02.758Z,15.50
2023-08-07T08:33:34.441Z,15.47
2023-08-07T08:36:06.714Z,15.46
2023-08-07T08:38:38.302Z,15.46
2023-08-07T08:41:11.328Z,15.48
2023-08-07T08:43:45.892Z,15.51
2023-08-07T08:46:21.159Z,15.55
2023-08-07T08:48:58.677Z,15.59
2023-08-07T08:51:30.502Z,15.63
2023-08-07T08:54:03.600Z,15.67
2023-08-07T08:56:35.497Z,15.70
2023-08-07T08:59:07.554Z,15.74
2023-08-07T09:01:40.571Z,15.77
2023-08-07T09:04:12.509Z,15.83
2023-08-07T09:06:44.693Z,15.89
2023-08-07T09:09:18.641Z,15.96
2023-08-07T09:11:50.823Z,16.02
2023-08-07T09:14:26.595Z,16.07
2023-08-07T09:17:00.654Z,16.11
2023-08-07T09:19:32.945Z,16.14
2023-08-07T09:22:04.790Z,16.19
2023-08-07T09:24:36.340Z,16.23
2023-08-07T09:27:10.494Z,16.28
2023-08-07T09:29:45.255Z,16.33
2023-08-07T09:32:19.564Z,16.37
2023-08-07T09:34:53.299Z,16.40
2023-08-07T09:37:25.404Z,16.41
2023-08-07T09:39:56.960Z,16.40
2023-08-07T09:42:32.400Z,16.40
2023-08-07T09:45:05.113Z,16.39
2023-08-07T09:47:37.292Z,16.40
2023-08-07T09:50:17.302Z,16.40
2023-08-07T09:52:51.717Z,16.40
2023-08-07T09:55:23.437Z,16.38
2023-08-07T09:57:55.827Z,16.33
2023-08-07T10:00:27.688Z,16.27
2023-08-07T10:02:59.877Z,16.23
2023-08-07T10:05:32.226Z,16.18
2023-08-07T10:08:05.411Z,16.14
2023-08-07T10:10:37.230Z,16.09
2023-08-07T10:13:09.788Z,15.97
2023-08-07T10:15:43.179Z,15.85
2023-08-07T10:18:14.977Z,15.72
2023-08-07T10:20:47.235Z,15.53
2023-08-07T10:23:20.103Z,15.36
2023-08-07T10:25:54.258Z,15.28
2023-08-07T10:28:29.974Z,15.26
2023-08-07T10:31:02.771Z,15.24
2023-08-07T10:33:35.826Z,15.24
2023-08-07T10:36:13.635Z,15.26
2023-08-07T10:38:45.325Z,15.26
2023-08-07T10:41:20.059Z,15.26
2023-08-07T10:43:51.677Z,15.29
2023-08-07T10:46:25.642Z,15.31
2023-08-07T10:48:59.510Z,15.33
2023-08-07T10:51:33.456Z,15.35
2023-08-07T10:54:06.135Z,15.36
2023-08-07T10:56:39.076Z,15.37
2023-08-07T10:59:14.505Z,15.37
2023-08-07T11:01:52.596Z,15.39
2023-08-07T11:04:27.286Z,15.41
2023-08-07T11:06:59.342Z,15.45
2023-08-07T11:09:31.192Z,15.51
2023-08-07T11:12:03.060Z,15.58
2023-08-07T11:14:35.100Z,15.64
2023-08-07T11:17:08.478Z,15.68
2023-08-07T11:19:40.667Z,15.72
2023-08-07T11:22:12.562Z,15.75
2023-08-07T11:24:44.397Z,15.81
2023-08-07T11:27:15.981Z,15.85
2023-08-07T11:29:51.182Z,15.90
2023-08-07T11:32:24.383Z,15.98
2023-08-07T11:34:55.997Z,16.06
2023-08-07T11:37:27.615Z,16.16
2023-08-07T11:40:05.091Z,16.26
2023-08-07T11:42:36.686Z,16.33
2023-08-07T11:45:10.839Z,16.40
2023-08-07T11:47:42.510Z,16.47
2023-08-07T11:50:14.880Z,16.49
2023-08-07T11:52:47.025Z,16.46
2023-08-07T11:55:19.472Z,16.44
2023-08-07T11:57:51.348Z,16.45
2023-08-07T12:00:27.963Z,16.48
2023-08-07T12:02:59.507Z,16.51
2023-08-07T12:05:39.762Z,16.52
2023-08-07T12:08:13.398Z,16.54
2023-08-07T12:10:45.528Z,16.55
2023-08-07T12:13:17.171Z,16.57
2023-08-07T12:15:48.906Z,16.57
2023-08-07T12:18:22.230Z,16.57
2023-08-07T12:20:54.880Z,16.54
2023-08-07T12:23:26.484Z,16.53
2023-08-07T12:25:58.359Z,16.52
2023-08-07T12:28:30.045Z,16.50
2023-08-07T12:31:01.617Z,16.46
2023-08-07T12:33:33.526Z,16.44
2023-08-07T12:38:50.768Z,16.39
2023-08-07T12:43:57.017Z,16.35
2023-08-07T12:49:04.235Z,16.38
2023-08-07T12:51:35.890Z,16.38
2023-08-07T12:54:07.583Z,16.36
2023-08-07T12:56:39.241Z,16.36
2023-08-07T12:59:10.829Z,16.36
2023-08-07T13:01:42.386Z,16.36
2023-08-07T13:04:16.361Z,16.35
2023-08-07T13:06:50.694Z,16.33
2023-08-07T13:09:22.601Z,16.32
2023-08-07T13:11:54.200Z,16.31
2023-08-07T13:14:25.764Z,16.31
2023-08-07T13:16:57.750Z,16.31
2023-08-07T13:19:29.617Z,16.32
2023-08-07T13:21:59.903Z,16.30
2023-08-07T13:24:31.452Z,16.30
2023-08-07T13:27:04.521Z,16.28
2023-08-07T13:29:36.742Z,16.27
2023-08-07T13:32:10.678Z,16.27
2023-08-07T13:34:42.345Z,16.28
2023-08-07T13:37:13.930Z,16.29
2023-08-07T13:39:45.464Z,16.31
2023-08-07T13:42:17.121Z,16.35
2023-08-07T13:44:48.736Z,16.37
2023-08-07T13:47:21.805Z,16.40
2023-08-07T13:49:54.032Z,16.40
2023-08-07T13:52:25.747Z,16.43
2023-08-07T13:54:57.260Z,16.49
2023-08-07T13:57:28.899Z,16.53
2023-08-07T14:00:00.580Z,16.56
2023-08-07T14:02:33.039Z,16.62
2023-08-07T14:05:05.439Z,16.66
2023-08-07T14:07:37.106Z,16.71
2023-08-07T14:10:10.171Z,16.77
2023-08-07T14:12:41.793Z,16.83
2023-08-07T14:15:14.074Z,16.88
2023-08-07T14:17:45.651Z,16.94
2023-08-07T14:20:17.364Z,16.99
2023-08-07T14:22:48.969Z,17.04
2023-08-07T14:25:22.470Z,17.09
2023-08-07T14:27:54.947Z,17.14
2023-08-07T14:30:26.829Z,17.19
2023-08-07T14:32:58.427Z,17.25
2023-08-07T14:35:30.153Z,17.31
2023-08-07T14:38:01.820Z,17.40
2023-08-07T14:40:33.552Z,17.48
2023-08-07T14:43:05.203Z,17.54
2023-08-07T14:45:38.388Z,17.60
2023-08-07T14:48:10.048Z,17.68
2023-08-07T14:50:41.610Z,17.78
2023-08-07T14:53:13.160Z,17.85
2023-08-07T14:55:45.617Z,17.89
2023-08-07T14:58:17.486Z,17.90
2023-08-07T15:00:50.745Z,17.90
2023-08-07T15:03:22.335Z,17.91
2023-08-07T15:05:53.973Z,17.90
2023-08-07T15:08:25.609Z,17.90
2023-08-07T15:10:57.200Z,17.89
2023-08-07T15:13:28.951Z,17.88
2023-08-07T15:16:00.642Z,17.84
2023-08-07T15:18:32.361Z,17.78
2023-08-07T15:21:04.016Z,17.73
2023-08-07T15:23:35.795Z,17.70
2023-08-07T15:26:07.607Z,17.64
2023-08-07T15:28:39.175Z,17.58
2023-08-07T15:31:10.898Z,17.55
2023-08-07T15:33:43.502Z,17.55
2023-08-07T15:36:15.161Z,17.54
2023-08-07T15:38:46.968Z,17.55
2023-08-07T15:41:18.903Z,17.57
2023-08-07T15:43:51.341Z,17.56
2023-08-07T15:46:22.984Z,17.52
2023-08-07T15:48:56.334Z,17.51
2023-08-07T15:51:28.090Z,17.48
2023-08-07T15:53:59.860Z,17.48
2023-08-07T15:56:31.370Z,17.45
2023-08-07T15:59:02.989Z,17.39
2023-08-07T16:01:34.760Z,17.34
2023-08-07T16:04:06.799Z,17.28
2023-08-07T16:06:39.463Z,17.23
2023-08-07T16:09:11.154Z,17.19
2023-08-07T16:11:42.775Z,17.18
2023-08-07T16:14:14.602Z,17.17
2023-08-07T16:16:46.284Z,17.17
2023-08-07T16:19:18.007Z,17.14
2023-08-07T16:21:49.757Z,17.11
2023-08-07T16:24:21.401Z,17.08
2023-08-07T16:26:53.084Z,17.04
2023-08-07T16:29:24.696Z,16.99
2023-08-07T16:31:57.355Z,16.91
2023-08-07T16:34:29.249Z,16.86
2023-08-07T16:37:01.314Z,16.81
2023-08-07T16:39:33.199Z,16.77
2023-08-07T16:42:05.380Z,16.73
2023-08-07T16:44:37.018Z,16.69
2023-08-07T16:47:09.078Z,16.63
2023-08-07T16:49:41.432Z,16.59
2023-08-07T16:52:13.041Z,16.53
2023-08-07T16:54:45.031Z,16.46
2023-08-07T16:57:16.651Z,16.39
2023-08-07T16:59:48.713Z,16.35
2023-08-07T17:02:20.354Z,16.31
2023-08-07T17:04:51.938Z,16.27
2023-08-07T17:07:23.556Z,16.23
2023-08-07T17:09:55.084Z,16.21
2023-08-07T17:12:26.740Z,16.18
2023-08-07T17:14:58.292Z,16.16
2023-08-07T17:17:29.953Z,16.18
2023-08-07T17:20:01.690Z,16.19
2023-08-07T17:22:33.593Z,16.18
2023-08-07T17:25:06.170Z,16.16
2023-08-07T17:27:37.983Z,16.15
2023-08-07T17:30:11.482Z,16.16
2023-08-07T17:32:43.298Z,16.17
2023-08-07T17:35:14.918Z,16.16
2023-08-07T17:37:46.580Z,16.16
2023-08-07T17:40:18.330Z,16.13
2023-08-07T17:42:49.947Z,16.12
2023-08-07T17:45:21.666Z,16.11
2023-08-07T17:47:54.631Z,16.11
2023-08-07T17:50:26.338Z,16.12
2023-08-07T17:52:58.096Z,16.11
2023-08-07T17:55:31.170Z,16.10
2023-08-07T17:58:03.940Z,16.08
2023-08-07T18:00:35.703Z,16.08
2023-08-07T18:03:08.697Z,16.05
2023-08-07T18:05:40.696Z,16.02
2023-08-07T18:08:12.383Z,16.00
2023-08-07T18:10:43.979Z,15.98
2023-08-07T18:13:15.508Z,15.94
2023-08-07T18:15:47.202Z,15.90
2023-08-07T18:18:19.064Z,15.86
2023-08-07T18:20:50.670Z,15.82
2023-08-07T18:23:22.565Z,15.78
2023-08-07T18:25:54.504Z,15.75
2023-08-07T18:28:26.219Z,15.71
2023-08-07T18:30:57.989Z,15.69
2023-08-07T18:33:29.743Z,15.66
2023-08-07T18:36:01.846Z,15.63
2023-08-07T18:38:33.409Z,15.60
2023-08-07T18:41:07.059Z,15.58
2023-08-07T18:43:39.435Z,15.57
2023-08-07T18:46:12.815Z,15.55
2023-08-07T18:48:44.517Z,15.51
2023-08-07T18:51:16.181Z,15.47
2023-08-07T18:53:48.081Z,15.43
2023-08-07T18:56:20.063Z,15.40
2023-08-07T18:58:52.961Z,15.38
2023-08-07T19:01:24.864Z,15.34
2023-08-07T19:03:56.747Z,15.30
2023-08-07T19:06:30.286Z,15.28
2023-08-07T19:09:01.920Z,15.27
2023-08-07T19:11:33.691Z,15.23
2023-08-07T19:14:06.345Z,15.22
2023-08-07T19:16:38.067Z,15.22
2023-08-07T19:19:09.814Z,15.21
2023-08-07T19:21:41.708Z,15.18
2023-08-07T19:24:16.066Z,15.16
2023-08-07T19:26:48.040Z,15.14
2023-08-07T19:29:19.655Z,15.12
2023-08-07T19:31:51.335Z,15.10
2023-08-07T19:34:23.182Z,15.11
2023-08-07T19:36:59.047Z,15.09
2023-08-07T19:39:31.049Z,15.10
2023-08-07T19:42:03.188Z,15.10
2023-08-07T19:44:38.633Z,15.09
2023-08-07T19:47:14.235Z,15.08
2023-08-07T19:49:54.021Z,15.07
2023-08-07T19:52:27.883Z,15.09
2023-08-07T19:54:59.543Z,15.11
2023-08-07T19:57:31.672Z,15.14
2023-08-07T20:00:05.593Z,15.15
2023-08-07T20:02:37.467Z,15.16
2023-08-07T20:05:10.553Z,15.17
2023-08-07T20:07:42.223Z,15.17
2023-08-07T20:10:14.653Z,15.18
2023-08-07T20:12:47.519Z,15.18
2023-08-07T20:15:20.310Z,15.16
2023-08-07T20:17:53.720Z,15.15
2023-08-07T20:20:26.082Z,15.13
2023-08-07T20:22:57.813Z,15.09
2023-08-07T20:25:30.803Z,15.08
2023-08-07T20:28:02.362Z,15.05
2023-08-07T20:30:34.349Z,15.02
2023-08-07T20:33:06.866Z,15.00
2023-08-07T20:35:38.446Z,14.97
2023-08-07T20:38:10.151Z,14.96
2023-08-07T20:40:41.741Z,14.94
2023-08-07T20:43:13.432Z,14.91
2023-08-07T20:45:45.946Z,14.88
2023-08-07T20:48:18.771Z,14.86
2023-08-07T20:50:50.456Z,14.84
2023-08-07T20:53:23.270Z,14.82
2023-08-07T20:55:54.919Z,14.80
2023-08-07T20:58:26.820Z,14.78
2023-08-07T21:00:58.861Z,14.78
2023-08-07T21:03:30.716Z,14.77
2023-08-07T21:06:02.726Z,14.76
2023-08-07T21:08:34.393Z,14.75
2023-08-07T21:11:05.964Z,14.75
2023-08-07T21:13:39.075Z,14.73
2023-08-07T21:16:10.779Z,14.73
2023-08-07T21:18:42.462Z,14.73
2023-08-07T21:21:15.099Z,14.71
2023-08-07T21:23:46.794Z,14.69
2023-08-07T21:26:19.748Z,14.68
2023-08-07T21:28:51.486Z,14.64
2023-08-07T21:31:23.305Z,14.62
2023-08-07T21:33:55.880Z,14.60
2023-08-07T21:36:27.948Z,14.57
2023-08-07T21:38:59.948Z,14.55
2023-08-07T21:41:32.114Z,14.53
2023-08-07T21:44:03.842Z,14.52
2023-08-07T21:46:35.530Z,14.51
2023-08-07T21:49:14.969Z,14.50
2023-08-07T21:51:47.128Z,14.50
2023-08-07T21:54:18.846Z,14.49
2023-08-07T21:56:54.911Z,14.48
2023-08-07T22:02:55.632Z,14.46
2023-08-07T22:05:30.467Z,14.45
2023-08-07T22:08:02.567Z,14.44
2023-08-07T22:10:34.273Z,14.43
2023-08-07T22:13:07.099Z,14.41
2023-08-07T22:15:39.042Z,14.41
2023-08-07T22:18:10.622Z,14.39
2023-08-07T22:20:43.279Z,14.38
2023-08-07T22:23:14.837Z,14.36
2023-08-07T22:25:46.451Z,14.34
2023-08-07T22:28:18.120Z,14.34
2023-08-07T22:30:49.794Z,14.33
2023-08-07T22:33:21.453Z,14.33
2023-08-07T22:35:53.219Z,14.32
2023-08-07T22:38:24.822Z,14.31
2023-08-07T22:40:56.675Z,14.30
2023-08-07T22:43:28.307Z,14.30
2023-08-07T22:46:00.303Z,14.30
2023-08-07T22:48:33.037Z,14.31
2023-08-07T22:51:05.995Z,14.31
2023-08-07T22:53:37.706Z,14.32
2023-08-07T22:56:09.242Z,14.30
2023-08-07T22:58:40.868Z,14.30
2023-08-07T23:01:12.450Z,14.30
2023-08-07T23:03:44.004Z,14.29
2023-08-07T23:06:14.145Z,14.28
2023-08-07T23:08:45.672Z,14.27
2023-08-07T23:11:17.288Z,14.28
2023-08-07T23:13:48.918Z,14.28
2023-08-07T23:16:20.682Z,14.28
2023-08-07T23:18:52.655Z,14.28
2023-08-07T23:21:24.136Z,14.28
2023-08-07T23:23:54.287Z,14.26
2023-08-07T23:26:25.850Z,14.24
2023-08-07T23:28:56.105Z,14.21
2023-08-07T23:31:28.717Z,14.19
2023-08-07T23:34:00.354Z,14.16
2023-08-07T23:36:32.186Z,14.14
2023-08-07T23:39:04.101Z,14.14
2023-08-07T23:41:35.659Z,14.13
2023-08-07T23:44:05.878Z,14.12
2023-08-07T23:46:37.435Z,14.09
2023-08-07T23:49:09.101Z,14.08
2023-08-07T23:51:41.767Z,14.07
2023-08-07T23:54:13.379Z,14.07
2023-08-07T23:56:45.015Z,14.06
2023-08-07T23:59:16.645Z,14.05
